Time;durP1;ratioP1;P1;durP2;ratioP2;P2;SDS_P1;SDS_P2;PMS_P1;PMS_P2;Temp;Humidity;BMP_temperature;BMP_pressure;BME280_temperature;BME280_humidity;BME280_pressure;Samples;Min_cycle;Max_cycle;Signal;HPM_P1;HPM_P2
2022/10/12 00:01:10;;;;;;;18.70;15.70;;;;;;;14.98;94.92;96221.97;4993665;28;20230;-78
2022/10/12 00:03:37;;;;;;;19.67;16.05;;;;;;;14.96;95.45;96219.56;4994250;28;20220;-78
2022/10/12 00:06:06;;;;;;;18.27;16.38;;;;;;;14.95;95.66;96224.94;4993821;28;20196;-79
2022/10/12 00:08:34;;;;;;;21.48;15.18;;;;;;;14.98;95.20;96222.78;4994513;28;20218;-78
2022/10/12 00:11:01;;;;;;;21.30;15.80;;;;;;;15.07;94.82;96218.25;4997439;28;20234;-79
2022/10/12 00:13:28;;;;;;;18.50;15.15;;;;;;;15.11;93.94;96215.09;4995741;28;20192;-78
2022/10/12 00:15:55;;;;;;;17.55;15.75;;;;;;;15.14;94.17;96219.09;4997661;28;20204;-80
2022/10/12 00:18:21;;;;;;;17.45;15.52;;;;;;;15.20;94.02;96208.75;4996585;28;20211;-77
2022/10/12 00:20:48;;;;;;;19.17;16.35;;;;;;;15.25;93.19;96215.97;4997746;28;20223;-79
2022/10/12 00:23:14;;;;;;;21.00;17.17;;;;;;;15.26;92.85;96212.38;4996586;28;20223;-80
2022/10/12 00:25:41;;;;;;;18.65;16.65;;;;;;;15.30;92.74;96215.41;4987609;28;20690;-80
2022/10/12 00:28:10;;;;;;;18.95;16.30;;;;;;;15.31;92.41;96211.81;4993619;28;20290;-82
2022/10/12 00:30:40;;;;;;;20.05;16.88;;;;;;;15.22;92.41;96213.75;4994312;28;20220;-79
2022/10/12 00:33:06;;;;;;;21.50;17.42;;;;;;;15.11;93.02;96204.72;4993899;28;20222;-81
2022/10/12 00:35:32;;;;;;;22.00;17.13;;;;;;;15.06;93.29;96211.44;4994520;28;20196;-81
2022/10/12 00:37:59;;;;;;;23.35;17.38;;;;;;;15.09;92.97;96208.47;4994910;28;20210;-81
2022/10/12 00:40:26;;;;;;;21.80;17.70;;;;;;;14.97;93.30;96202.22;4994173;28;20246;-80
2022/10/12 00:42:52;;;;;;;23.02;17.95;;;;;;;14.99;93.43;96206.25;4994105;28;20226;-81
2022/10/12 00:45:20;;;;;;;22.17;17.92;;;;;;;15.05;93.05;96205.47;4993701;28;20208;-81
2022/10/12 00:47:50;;;;;;;21.50;17.15;;;;;;;15.10;92.57;96204.91;4994036;28;20203;-79
2022/10/12 00:50:21;;;;;;;19.50;17.00;;;;;;;15.13;92.42;96213.13;4993557;28;20732;-81
2022/10/12 00:52:55;;;;;;;26.17;17.15;;;;;;;15.21;91.88;96212.16;4993789;28;20203;-79
2022/10/12 00:55:24;;;;;;;19.13;17.05;;;;;;;15.17;91.83;96211.75;4992570;28;20202;-81
2022/10/12 00:57:53;;;;;;;22.50;16.80;;;;;;;15.13;92.15;96214.91;4988553;28;20613;-80
2022/10/12 01:00:22;;;;;;;20.05;17.98;;;;;;;15.07;92.76;96213.84;4992085;28;20226;-81
2022/10/12 01:02:51;;;;;;;20.95;16.83;;;;;;;15.06;92.66;96212.25;4993399;28;20231;-81
2022/10/12 01:05:19;;;;;;;19.30;17.20;;;;;;;15.05;92.25;96210.66;4992644;28;20574;-81
2022/10/12 01:07:46;;;;;;;21.60;16.88;;;;;;;14.96;93.26;96204.00;4993247;28;20199;-81
2022/10/12 01:10:13;;;;;;;19.73;17.15;;;;;;;14.99;93.27;96208.84;4992958;28;20229;-81
2022/10/12 01:12:42;;;;;;;21.42;17.95;;;;;;;14.95;92.92;96205.00;4993456;28;20246;-81
2022/10/12 01:15:10;;;;;;;22.08;18.42;;;;;;;14.98;92.58;96209.81;4993010;28;20211;-81
2022/10/12 01:17:45;;;;;;;22.73;17.60;;;;;;;14.96;92.57;96209.19;4993287;28;20227;-81
2022/10/12 01:20:32;;;;;;;19.73;17.65;;;;;;;14.92;92.77;96214.94;4992668;28;20262;-81
2022/10/12 01:23:25;;;;;;;22.45;18.08;;;;;;;14.95;92.53;96199.00;4989045;28;20243;-81
2022/10/12 01:26:11;;;;;;;22.25;17.73;;;;;;;14.94;92.78;96203.41;4963178;28;20208;-80
2022/10/12 01:28:51;;;;;;;19.20;16.90;;;;;;;14.96;92.91;96204.00;4992099;28;20547;-81
2022/10/12 01:31:28;;;;;;;22.10;18.45;;;;;;;14.95;93.08;96196.41;4992694;28;20620;-80
2022/10/12 01:34:00;;;;;;;24.15;17.73;;;;;;;14.92;93.29;96199.38;4993350;28;20195;-79
2022/10/12 01:36:33;;;;;;;19.30;17.02;;;;;;;14.88;93.94;96204.13;4992377;28;20699;-81
2022/10/12 01:39:06;;;;;;;20.25;17.90;;;;;;;14.95;93.35;96204.19;4993289;28;20200;-80
2022/10/12 01:41:37;;;;;;;24.83;18.58;;;;;;;14.93;93.50;96206.97;4992170;28;20711;-81
2022/10/12 01:44:05;;;;;;;20.90;16.48;;;;;;;14.90;93.97;96209.13;4993146;28;20222;-81
2022/10/12 01:46:46;;;;;;;19.35;17.20;;;;;;;14.93;94.14;96212.16;4992687;28;20206;-81
2022/10/12 01:49:16;;;;;;;21.35;17.15;;;;;;;15.00;93.68;96204.44;4992272;28;20206;-81
2022/10/12 01:52:00;;;;;;;19.63;16.30;;;;;;;15.05;93.00;96208.06;4991258;28;20224;-81
2022/10/12 01:54:38;;;;;;;18.85;16.73;;;;;;;15.01;93.05;96206.03;4991784;28;20215;-81
2022/10/12 01:57:13;;;;;;;20.52;17.48;;;;;;;15.05;92.81;96205.47;4991605;28;20196;-81
2022/10/12 01:59:51;;;;;;;22.05;18.02;;;;;;;14.99;93.32;96208.84;4991570;28;20675;-80
2022/10/12 02:02:28;;;;;;;24.33;17.23;;;;;;;15.02;93.38;96202.44;4991849;28;20191;-81
2022/10/12 02:05:02;;;;;;;22.45;17.20;;;;;;;15.16;92.45;96198.97;4987712;28;20215;-79
2022/10/12 02:07:40;;;;;;;24.60;18.13;;;;;;;15.23;92.02;96204.19;4995915;28;20204;-78
2022/10/12 02:10:09;;;;;;;21.23;18.00;;;;;;;15.15;92.45;96199.97;4996385;28;20571;-77
2022/10/12 02:12:39;;;;;;;28.10;20.15;;;;;;;15.07;93.52;96206.06;4992235;28;20287;-81
2022/10/12 02:15:09;;;;;;;28.90;20.15;;;;;;;15.06;93.87;96193.28;4991906;28;20206;-81
2022/10/12 02:17:39;;;;;;;24.77;18.77;;;;;;;15.14;93.60;96193.16;4990528;28;20207;-81
2022/10/12 02:20:11;;;;;;;20.80;17.52;;;;;;;15.22;93.31;96200.78;4991800;28;20223;-81
2022/10/12 02:22:39;;;;;;;26.70;20.40;;;;;;;15.27;93.26;96203.63;4991957;28;20195;-80
2022/10/12 02:25:09;;;;;;;24.25;20.10;;;;;;;15.31;92.69;96199.66;4992486;28;20616;-79
2022/10/12 02:27:38;;;;;;;25.70;20.30;;;;;;;15.35;92.74;96205.28;4991785;28;20203;-81
2022/10/12 02:30:07;;;;;;;29.30;20.75;;;;;;;15.37;92.68;96201.50;4995892;28;20238;-81
2022/10/12 02:32:40;;;;;;;24.23;20.20;;;;;;;15.39;92.39;96196.91;4996270;28;20207;-81
2022/10/12 02:35:11;;;;;;;25.23;19.63;;;;;;;15.30;92.28;96192.84;4997465;28;20195;-81
2022/10/12 02:37:43;;;;;;;25.77;19.42;;;;;;;15.26;92.34;96194.22;4995469;28;20192;-81
2022/10/12 02:40:15;;;;;;;26.05;18.95;;;;;;;15.23;92.65;96197.19;4996363;28;20216;-79
2022/10/12 02:42:48;;;;;;;23.40;18.50;;;;;;;15.14;93.32;96186.19;4995544;28;20641;-80
2022/10/12 02:45:17;;;;;;;28.70;20.77;;;;;;;15.16;93.86;96193.78;4996361;28;20215;-81
2022/10/12 02:47:48;;;;;;;25.60;20.65;;;;;;;15.10;95.78;96186.75;4996714;28;20196;-80
2022/10/12 02:50:17;;;;;;;25.67;21.02;;;;;;;15.04;97.03;96183.09;4996929;28;20220;-81
2022/10/12 02:52:45;;;;;;;27.30;22.10;;;;;;;15.12;96.30;96180.38;4997273;28;20196;-81
2022/10/12 02:55:11;;;;;;;27.00;21.90;;;;;;;15.17;95.51;96183.22;4995715;28;20192;-81
2022/10/12 02:57:38;;;;;;;27.75;21.77;;;;;;;15.18;95.09;96184.81;4996236;28;20199;-81
2022/10/12 03:00:06;;;;;;;28.55;21.92;;;;;;;15.10;95.47;96181.56;4996569;28;20227;-81
2022/10/12 03:02:33;;;;;;;25.02;20.65;;;;;;;15.06;95.99;96180.31;4995959;28;20200;-81
2022/10/12 03:05:00;;;;;;;28.15;22.23;;;;;;;15.15;95.28;96174.81;4991305;28;20223;-81
2022/10/12 03:07:27;;;;;;;29.38;22.63;;;;;;;15.20;94.90;96175.03;4995550;28;20207;-81
2022/10/12 03:09:53;;;;;;;28.27;21.48;;;;;;;15.20;93.60;96182.81;4996122;28;20216;-81
2022/10/12 03:12:20;;;;;;;30.88;21.05;;;;;;;15.08;94.13;96181.75;4993435;28;20202;-81
2022/10/12 03:14:46;;;;;;;31.05;20.65;;;;;;;15.06;94.10;96180.31;4995013;28;20572;-81
2022/10/12 03:17:13;;;;;;;31.88;21.60;;;;;;;15.03;93.64;96178.91;4994997;28;20560;-81
2022/10/12 03:19:40;;;;;;;29.42;20.58;;;;;;;15.03;93.63;96167.72;4994803;28;20195;-80
2022/10/12 03:22:08;;;;;;;27.70;20.45;;;;;;;14.98;93.85;96175.31;4993510;28;20191;-80
2022/10/12 03:24:35;;;;;;;29.85;20.95;;;;;;;15.01;93.68;96174.94;4994303;28;20250;-81
2022/10/12 03:27:01;;;;;;;36.63;21.23;;;;;;;15.08;93.08;96173.16;4994867;28;20222;-82
2022/10/12 03:29:28;;;;;;;36.90;22.08;;;;;;;15.11;92.70;96173.59;4994516;28;20250;-81
2022/10/12 03:31:54;;;;;;;29.33;21.23;;;;;;;15.13;92.90;96171.59;4994593;28;20729;-80
2022/10/12 03:34:21;;;;;;;29.55;21.63;;;;;;;15.18;92.67;96178.84;4994154;28;20198;-81
2022/10/12 03:36:47;;;;;;;32.15;21.13;;;;;;;15.13;92.80;96176.81;4995313;28;20544;-81
2022/10/12 03:39:15;;;;;;;38.35;21.60;;;;;;;15.06;93.62;96180.31;4994112;28;20204;-81
2022/10/12 03:41:41;;;;;;;32.15;22.17;;;;;;;15.04;93.77;96185.69;4986141;28;20611;-81
2022/10/12 03:44:08;;;;;;;38.40;23.13;;;;;;;15.04;93.88;96179.72;4993722;28;20215;-81
2022/10/12 03:46:34;;;;;;;42.92;23.58;;;;;;;14.94;94.53;96182.66;4989525;28;20824;-81
2022/10/12 03:49:01;;;;;;;39.70;24.38;;;;;;;14.92;94.81;96187.22;4994116;28;20198;-80
2022/10/12 03:51:27;;;;;;;39.13;24.50;;;;;;;14.95;94.92;96189.44;4992034;28;20226;-81
2022/10/12 03:53:54;;;;;;;46.22;26.80;;;;;;;14.85;95.80;96183.75;4994412;28;20196;-81
2022/10/12 03:56:21;;;;;;;38.65;24.20;;;;;;;14.89;95.83;96186.78;4993553;28;20582;-82
2022/10/12 03:58:48;;;;;;;41.63;25.60;;;;;;;14.90;96.10;96189.19;4995452;28;20818;-80
2022/10/12 04:01:14;;;;;;;48.72;26.58;;;;;;;14.96;95.61;96190.25;4991623;28;20219;-81
2022/10/12 04:03:41;;;;;;;50.53;27.33;;;;;;;14.94;96.12;96187.03;4994481;28;20199;-81
2022/10/12 04:06:07;;;;;;;44.03;25.65;;;;;;;14.97;96.00;96194.44;4994541;28;20195;-81
2022/10/12 04:08:37;;;;;;;42.65;26.63;;;;;;;14.96;96.35;96188.44;4994501;28;20208;-80
2022/10/12 04:11:03;;;;;;;49.80;28.23;;;;;;;14.95;96.26;96188.63;4992123;28;20219;-81
2022/10/12 04:13:31;;;;;;;51.78;29.58;;;;;;;14.81;98.29;96185.97;4993505;28;20207;-81
2022/10/12 04:16:02;;;;;;;53.08;30.17;;;;;;;14.81;98.57;96188.56;4993462;28;20914;-80
2022/10/12 04:18:28;;;;;;;51.05;28.25;;;;;;;14.79;99.03;96187.13;4993851;28;20203;-81
2022/10/12 04:20:55;;;;;;;52.72;28.98;;;;;;;14.78;98.93;96188.13;4994537;28;20219;-80
2022/10/12 04:23:21;;;;;;;52.92;29.45;;;;;;;14.75;99.47;96189.28;4993187;28;20199;-81
2022/10/12 04:25:48;;;;;;;56.10;30.23;;;;;;;14.79;99.17;96190.53;4994239;28;20219;-81
2022/10/12 04:28:14;;;;;;;50.53;27.95;;;;;;;14.86;100.00;96198.34;4993225;28;20199;-80
2022/10/12 04:30:42;;;;;;;50.65;29.05;;;;;;;14.88;98.73;96186.00;4993871;28;20219;-80
2022/10/12 04:33:08;;;;;;;45.28;28.15;;;;;;;14.78;100.00;96196.69;4993591;28;20191;-81
2022/10/12 04:35:35;;;;;;;55.67;30.33;;;;;;;14.84;99.69;96195.13;4995317;28;20211;-81
2022/10/12 04:38:01;;;;;;;48.92;28.83;;;;;;;14.88;99.54;96201.53;4996790;28;20705;-81
2022/10/12 04:40:28;;;;;;;63.28;31.77;;;;;;;14.78;100.00;96201.09;4991902;28;20215;-81
2022/10/12 04:42:55;;;;;;;51.90;30.70;;;;;;;14.77;100.00;96197.69;4986257;28;20204;-82
2022/10/12 04:45:21;;;;;;;49.97;29.17;;;;;;;14.84;100.00;96208.88;4992988;28;20619;-80
2022/10/12 04:47:49;;;;;;;48.08;29.63;;;;;;;14.86;99.43;96201.72;4988016;28;20200;-80
2022/10/12 04:50:16;;;;;;;56.40;30.65;;;;;;;14.78;100.00;96206.25;4993406;28;20231;-80
2022/10/12 04:52:42;;;;;;;58.53;31.25;;;;;;;14.68;100.00;96201.38;4992494;28;20204;-82
2022/10/12 04:55:09;;;;;;;63.55;32.00;;;;;;;14.73;100.00;96198.25;4993065;28;20203;-82
2022/10/12 04:57:35;;;;;;;62.60;30.73;;;;;;;14.73;100.00;96196.44;4997714;28;20295;-81
2022/10/12 05:00:02;;;;;;;55.55;31.25;;;;;;;14.73;100.00;96204.22;4997436;28;20215;-81
2022/10/12 05:02:29;;;;;;;53.35;29.38;;;;;;;14.79;100.00;96202.69;4997858;28;20282;-82
2022/10/12 05:04:56;;;;;;;69.65;31.50;;;;;;;14.71;100.00;96202.81;4992237;28;20275;-82
2022/10/12 05:07:23;;;;;;;53.30;29.98;;;;;;;14.74;100.00;96202.44;4997208;28;20200;-81
2022/10/12 05:09:50;;;;;;;61.10;31.65;;;;;;;14.66;100.00;96195.59;4997252;28;20210;-80
2022/10/12 05:12:16;;;;;;;58.78;30.02;;;;;;;14.70;100.00;96193.44;4998068;28;20259;-81
2022/10/12 05:14:44;;;;;;;54.75;30.83;;;;;;;14.76;100.00;96201.25;4998613;28;20286;-82
2022/10/12 05:17:11;;;;;;;60.00;31.30;;;;;;;14.73;100.00;96199.03;4998764;28;20192;-81
2022/10/12 05:19:37;;;;;;;68.43;32.42;;;;;;;14.66;100.00;96199.97;4997023;28;20314;-81
2022/10/12 05:22:05;;;;;;;77.95;35.78;;;;;;;14.52;100.00;96209.41;5000147;28;20203;-82
2022/10/12 05:24:31;;;;;;;78.15;34.80;;;;;;;14.44;100.00;96199.97;4999724;28;20223;-82
2022/10/12 05:26:58;;;;;;;62.78;32.55;;;;;;;14.63;100.00;96205.50;4999575;28;20200;-82
2022/10/12 05:29:24;;;;;;;52.67;31.40;;;;;;;14.75;100.00;96211.81;4997744;28;20219;-80
2022/10/12 05:31:51;;;;;;;54.60;30.95;;;;;;;14.69;100.00;96208.16;4998227;28;20215;-81
2022/10/12 05:34:17;;;;;;;61.20;37.10;;;;;;;14.68;100.00;96214.34;4999394;28;20574;-81
2022/10/12 05:36:44;;;;;;;70.03;35.40;;;;;;;14.64;100.00;96213.09;4998389;28;20238;-80
2022/10/12 05:39:12;;;;;;;60.17;38.00;;;;;;;14.70;100.00;96207.19;4997858;28;20206;-81
2022/10/12 05:41:38;;;;;;;56.28;32.85;;;;;;;14.69;100.00;96215.16;4997934;28;20238;-81
2022/10/12 05:44:05;;;;;;;56.70;31.50;;;;;;;14.75;100.00;96211.81;4998329;28;20203;-82
2022/10/12 05:46:32;;;;;;;55.15;30.88;;;;;;;14.72;100.00;96217.38;4998162;28;20210;-81
2022/10/12 05:48:58;;;;;;;58.88;32.13;;;;;;;14.74;100.00;96223.19;4986025;28;20204;-82
2022/10/12 05:51:25;;;;;;;54.88;31.25;;;;;;;14.80;100.00;96220.66;4978833;28;20906;-82
2022/10/12 05:53:51;;;;;;;56.92;30.73;;;;;;;14.71;100.00;96218.34;5005977;28;20206;-82
2022/10/12 05:56:19;;;;;;;53.22;30.90;;;;;;;14.72;100.00;96225.94;5001194;28;20192;-81
2022/10/12 05:58:45;;;;;;;61.95;30.90;;;;;;;14.71;100.00;96229.53;4998478;28;20212;-82
2022/10/12 06:01:13;;;;;;;57.90;32.38;;;;;;;14.68;100.00;96229.91;4997777;28;20298;-81
2022/10/12 06:03:40;;;;;;;56.88;31.10;;;;;;;14.69;100.00;96234.09;4990672;28;20196;-80
2022/10/12 06:06:07;;;;;;;61.33;32.17;;;;;;;14.63;100.00;96239.22;4996352;28;20239;-80
2022/10/12 06:08:34;;;;;;;61.72;32.30;;;;;;;14.61;100.00;96229.06;4994717;28;20303;-81
2022/10/12 06:11:01;;;;;;;77.30;50.78;;;;;;;14.61;100.00;96230.84;4989903;28;20223;-82
2022/10/12 06:13:29;;;;;;;88.43;52.53;;;;;;;14.60;100.00;96229.25;4989770;28;20197;-82
2022/10/12 06:15:56;;;;;;;70.70;34.78;;;;;;;14.61;100.00;96236.03;4991193;28;20203;-81
2022/10/12 06:18:22;;;;;;;55.65;32.53;;;;;;;14.61;100.00;96228.25;4990024;28;20569;-81
2022/10/12 06:20:50;;;;;;;54.22;31.48;;;;;;;14.66;100.00;96237.06;4991546;28;20225;-82
2022/10/12 06:23:17;;;;;;;54.65;30.25;;;;;;;14.76;100.00;96237.56;4990031;28;20196;-80
2022/10/12 06:25:46;;;;;;;59.65;32.35;;;;;;;14.75;100.00;96238.53;4993163;28;20254;-81
2022/10/12 06:28:12;;;;;;;57.60;31.27;;;;;;;14.70;100.00;96240.09;4989292;28;20192;-82
2022/10/12 06:30:40;;;;;;;54.17;30.95;;;;;;;14.76;100.00;96240.16;4991639;28;20212;-81
2022/10/12 06:33:10;;;;;;;46.55;28.88;;;;;;;14.81;100.00;96240.41;4994772;28;20204;-80
2022/10/12 06:35:36;;;;;;;55.22;31.25;;;;;;;14.89;100.00;96241.25;4994516;28;20282;-82
2022/10/12 06:38:03;;;;;;;61.55;30.80;;;;;;;14.82;100.00;96247.16;4995862;28;20207;-82
2022/10/12 06:40:29;;;;;;;50.05;30.25;;;;;;;14.82;100.00;96248.94;4991689;28;20220;-83
2022/10/12 06:42:59;;;;;;;55.47;31.33;;;;;;;14.88;100.00;96248.22;4993328;28;20212;-82
2022/10/12 06:45:25;;;;;;;49.45;28.75;;;;;;;14.99;100.00;96254.72;4990276;28;20216;-81
2022/10/12 06:47:53;;;;;;;50.38;30.23;;;;;;;15.01;100.00;96247.53;4993402;28;20196;-81
2022/10/12 06:50:19;;;;;;;52.42;29.58;;;;;;;14.95;100.00;96246.50;4990699;28;20234;-81
2022/10/12 06:52:46;;;;;;;47.45;29.75;;;;;;;14.90;100.00;96250.63;4996912;28;20195;-81
2022/10/12 06:55:13;;;;;;;43.83;29.00;;;;;;;14.85;100.00;96243.41;4995465;28;20809;-81
2022/10/12 06:57:48;;;;;;;51.28;29.90;;;;;;;14.72;100.00;96251.88;4998055;28;20203;-83
2022/10/12 07:00:16;;;;;;;57.65;29.83;;;;;;;14.65;100.00;96247.59;4996925;28;20222;-81
2022/10/12 07:02:42;;;;;;;57.60;31.77;;;;;;;14.62;100.00;96248.00;4994884;28;20199;-82
2022/10/12 07:05:10;;;;;;;50.55;30.10;;;;;;;14.65;100.00;96247.59;4994864;28;20219;-81
2022/10/12 07:07:37;;;;;;;47.85;29.15;;;;;;;14.77;100.00;96246.13;4996777;28;20579;-82
2022/10/12 07:10:05;;;;;;;38.55;26.35;;;;;;;14.88;100.00;96248.22;4995585;28;20278;-82
2022/10/12 07:12:32;;;;;;;42.45;28.10;;;;;;;14.86;100.00;96253.59;4995943;28;20223;-82
2022/10/12 07:14:59;;;;;;;41.72;27.55;;;;;;;14.86;100.00;96247.59;4993360;28;20211;-80
2022/10/12 07:17:25;;;;;;;39.85;27.08;;;;;;;14.98;100.00;96243.53;4997583;28;20227;-81
2022/10/12 07:19:51;;;;;;;41.17;27.63;;;;;;;15.06;100.00;96255.53;4997292;28;20192;-82
2022/10/12 07:22:19;;;;;;;40.80;27.02;;;;;;;15.06;100.00;96251.16;4996795;28;20203;-81
2022/10/12 07:24:46;;;;;;;44.22;30.67;;;;;;;15.14;100.00;96250.22;4997395;28;20231;-81
2022/10/12 07:27:12;;;;;;;47.67;33.80;;;;;;;15.25;100.00;96261.88;4996760;28;20203;-82
2022/10/12 07:29:39;;;;;;;41.08;27.33;;;;;;;15.29;100.00;96257.91;4995726;28;20199;-81
2022/10/12 07:32:06;;;;;;;43.72;29.80;;;;;;;15.29;99.73;96256.13;4997554;28;20212;-81
2022/10/12 07:34:33;;;;;;;38.78;26.65;;;;;;;15.26;99.86;96259.09;4996902;28;20195;-79
2022/10/12 07:37:00;;;;;;;36.28;25.75;;;;;;;15.30;99.49;96264.72;4996664;28;20206;-80
2022/10/12 07:39:28;;;;;;;33.78;25.55;;;;;;;15.35;98.82;96257.97;4997444;28;20203;-80
2022/10/12 07:41:54;;;;;;;36.45;25.08;;;;;;;15.33;99.47;96270.31;4997484;28;20234;-81
2022/10/12 07:44:21;;;;;;;32.55;24.65;;;;;;;15.33;99.86;96266.94;4987924;28;20203;-80
2022/10/12 07:46:48;;;;;;;36.13;24.45;;;;;;;15.27;100.00;96272.88;4996211;28;20238;-81
2022/10/12 07:49:16;;;;;;;34.17;24.63;;;;;;;15.34;100.00;96265.94;4995615;28;20207;-81
2022/10/12 07:51:42;;;;;;;35.20;25.02;;;;;;;15.37;99.55;96274.16;4994572;28;20226;-80
2022/10/12 07:54:09;;;;;;;35.17;26.00;;;;;;;15.33;99.15;96270.31;4992021;28;20199;-81
2022/10/12 07:56:38;;;;;;;34.53;24.50;;;;;;;15.36;99.14;96271.75;4993769;28;20203;-80
2022/10/12 07:59:04;;;;;;;36.47;25.52;;;;;;;15.37;99.29;96273.34;4997044;28;20196;-82
2022/10/12 08:01:31;;;;;;;37.17;26.83;;;;;;;15.42;98.29;96273.56;4996273;28;20226;-81
2022/10/12 08:03:59;;;;;;;38.13;26.30;;;;;;;15.37;98.70;96276.75;4996430;28;20227;-81
2022/10/12 08:06:27;;;;;;;37.78;26.98;;;;;;;15.41;98.78;96279.75;4996077;28;20230;-82
2022/10/12 08:08:53;;;;;;;34.03;25.77;;;;;;;15.52;98.00;96280.03;4997008;28;20203;-79
2022/10/12 08:11:20;;;;;;;35.05;25.63;;;;;;;15.57;97.43;96283.91;4996385;28;20234;-81
2022/10/12 08:13:48;;;;;;;40.92;26.25;;;;;;;15.56;97.35;96284.88;4996304;28;20214;-82
2022/10/12 08:16:17;;;;;;;114.43;96.85;;;;;;;15.51;97.70;96277.63;4995053;28;20215;-81
2022/10/12 08:18:48;;;;;;;71.35;56.17;;;;;;;15.50;97.95;96279.41;4996106;28;20204;-82
2022/10/12 08:21:19;;;;;;;47.25;35.50;;;;;;;15.59;97.26;96284.50;4996565;28;20231;-82
2022/10/12 08:23:46;;;;;;;40.53;30.33;;;;;;;15.66;96.98;96283.53;4997363;28;20218;-82
2022/10/12 08:26:13;;;;;;;40.78;25.10;;;;;;;15.60;96.10;96278.28;4995748;28;20219;-82
2022/10/12 08:28:40;;;;;;;38.88;25.60;;;;;;;15.61;96.14;96285.09;4997387;28;20204;-82
2022/10/12 08:31:10;;;;;;;35.08;25.48;;;;;;;15.56;96.59;96279.69;4996809;28;20711;-82
2022/10/12 08:33:37;;;;;;;36.38;25.77;;;;;;;15.53;96.74;96281.66;5000385;28;20218;-82
2022/10/12 08:36:05;;;;;;;37.35;25.35;;;;;;;15.47;96.88;96284.19;4999909;28;20203;-82
2022/10/12 08:38:32;;;;;;;32.42;23.55;;;;;;;15.44;96.67;96282.78;4999933;28;20215;-82
2022/10/12 08:41:06;;;;;;;32.95;24.80;;;;;;;15.54;96.23;96282.44;4997892;28;20238;-82
2022/10/12 08:43:43;;;;;;;30.83;23.65;;;;;;;15.55;95.75;96281.47;5001719;28;20214;-82
2022/10/12 08:46:11;;;;;;;31.00;22.10;;;;;;;15.62;95.70;96282.31;4980108;28;20314;-82
2022/10/12 08:48:46;;;;;;;29.65;22.42;;;;;;;15.69;95.48;96288.34;4981089;28;20200;-82
2022/10/12 08:51:17;;;;;;;31.98;23.67;;;;;;;15.72;94.80;96289.78;4996577;28;20721;-82
2022/10/12 08:53:50;;;;;;;29.13;22.67;;;;;;;15.66;94.35;96286.13;5003311;28;20207;-82
2022/10/12 08:56:18;;;;;;;31.08;23.42;;;;;;;15.68;94.25;96291.16;5003202;28;20196;-83
2022/10/12 08:58:45;;;;;;;32.65;22.48;;;;;;;15.67;93.80;96284.34;5004341;28;20630;-82
2022/10/12 09:01:20;;;;;;;33.42;23.67;;;;;;;15.71;94.10;96288.16;5004005;28;20220;-81
2022/10/12 09:04:01;;;;;;;28.90;21.80;;;;;;;15.77;94.29;96287.41;5003813;28;20214;-82
2022/10/12 09:06:33;;;;;;;27.10;22.40;;;;;;;15.76;93.51;96293.59;5006246;28;20634;-81
2022/10/12 09:09:09;;;;;;;30.05;23.30;;;;;;;15.78;93.51;96294.97;5005634;28;20203;-81
2022/10/12 09:11:57;;;;;;;64.93;54.13;;;;;;;15.70;93.32;96289.97;5004100;28;20227;-82
2022/10/12 09:14:28;;;;;;;26.42;21.20;;;;;;;15.70;93.75;96291.75;5003959;28;20212;-82
2022/10/12 09:16:56;;;;;;;29.30;20.92;;;;;;;15.67;93.23;96298.13;5003828;28;20211;-81
2022/10/12 09:19:29;;;;;;;25.33;19.90;;;;;;;15.67;93.06;96299.94;5005193;28;20203;-82
2022/10/12 09:21:57;;;;;;;25.63;20.23;;;;;;;15.66;92.25;96296.53;4999780;28;20250;-82
2022/10/12 09:24:27;;;;;;;35.10;20.27;;;;;;;15.69;92.29;96287.56;5001540;28;20195;-82
2022/10/12 09:26:59;;;;;;;26.00;20.02;;;;;;;15.80;92.13;96289.59;5001581;28;20259;-82
2022/10/12 09:29:28;;;;;;;26.08;19.67;;;;;;;15.86;92.25;96287.06;5002526;28;20207;-82
2022/10/12 09:32:21;;;;;;;24.65;19.42;;;;;;;15.89;91.66;96294.47;5002367;28;20434;-80
2022/10/12 09:34:48;;;;;;;26.33;18.48;;;;;;;16.01;91.43;96297.31;5002112;28;20632;-81
2022/10/12 09:37:22;;;;;;;21.65;17.20;;;;;;;16.08;89.90;96282.56;5002328;28;20208;-81
2022/10/12 09:39:50;;;;;;;23.70;18.50;;;;;;;16.11;87.71;96284.78;5000289;28;20199;-82
2022/10/12 09:42:16;;;;;;;23.20;18.38;;;;;;;16.11;87.68;96282.19;4999692;28;20196;-82
2022/10/12 09:44:46;;;;;;;23.25;18.27;;;;;;;16.17;87.96;96289.19;4999955;28;20222;-81
2022/10/12 09:47:27;;;;;;;24.77;18.33;;;;;;;16.23;87.75;96283.22;4993981;28;20219;-80
2022/10/12 09:49:57;;;;;;;26.90;18.42;;;;;;;16.17;85.91;96278.78;4999764;28;20893;-82
2022/10/12 09:52:27;;;;;;;26.00;17.70;;;;;;;16.25;86.93;96285.63;5000956;28;20486;-82
2022/10/12 09:54:57;;;;;;;24.02;18.35;;;;;;;16.29;86.49;96284.25;4999274;28;20235;-81
2022/10/12 09:57:26;;;;;;;24.38;17.55;;;;;;;16.33;87.13;96285.47;5000160;28;20558;-81
2022/10/12 09:59:52;;;;;;;23.98;18.00;;;;;;;16.29;86.66;96283.44;5000051;28;20204;-81
2022/10/12 10:02:21;;;;;;;22.65;18.05;;;;;;;16.30;86.46;96275.47;4999416;28;20585;-82
2022/10/12 10:04:50;;;;;;;20.25;17.63;;;;;;;16.30;84.62;96282.47;4999625;28;20203;-80
2022/10/12 10:07:23;;;;;;;22.92;17.52;;;;;;;16.33;85.87;96284.66;4994449;28;20218;-81
2022/10/12 10:10:08;;;;;;;23.48;17.58;;;;;;;16.33;84.20;96285.47;4999214;28;20257;-81
2022/10/12 10:12:39;;;;;;;25.77;18.17;;;;;;;16.37;85.21;96284.06;5000852;28;20215;-81
2022/10/12 10:15:20;;;;;;;20.92;15.88;;;;;;;16.46;85.19;96288.09;4992108;28;20222;-82
2022/10/12 10:17:52;;;;;;;19.13;15.38;;;;;;;16.57;84.54;96278.91;4999433;28;20307;-82
2022/10/12 10:20:28;;;;;;;57.28;47.40;;;;;;;16.65;84.17;96283.97;4999950;28;20219;-81
2022/10/12 10:22:55;;;;;;;64.25;54.38;;;;;;;16.66;83.93;96282.19;5000039;28;20202;-81
2022/10/12 10:25:23;;;;;;;31.02;23.83;;;;;;;16.65;83.30;96281.38;5001556;28;20192;-82
2022/10/12 10:28:09;;;;;;;32.45;21.15;;;;;;;16.68;83.95;96275.78;5000989;28;20196;-82
2022/10/12 10:30:37;;;;;;;24.45;18.30;;;;;;;16.62;85.53;96278.34;4996159;28;20223;-81
2022/10/12 10:33:17;;;;;;;19.80;17.63;;;;;;;16.65;85.15;96281.38;4998178;28;20203;-80
2022/10/12 10:35:57;;;;;;;19.33;16.23;;;;;;;16.73;83.24;96280.41;4997705;28;20712;-84
2022/10/12 10:38:23;;;;;;;20.70;16.42;;;;;;;16.71;82.87;96279.78;4993797;28;20612;-82
2022/10/12 10:40:51;;;;;;;20.52;16.33;;;;;;;16.70;81.78;96283.41;5000490;28;20239;-81
2022/10/12 10:43:22;;;;;;;18.50;15.90;;;;;;;16.67;81.71;96283.78;4998695;28;20242;-77
2022/10/12 10:45:51;;;;;;;20.48;17.40;;;;;;;16.59;82.51;96282.13;4999828;28;20215;-80
2022/10/12 10:48:20;;;;;;;22.67;16.45;;;;;;;16.56;81.99;96279.91;4999757;28;20833;-79
2022/10/12 10:50:52;;;;;;;20.45;17.17;;;;;;;16.47;82.27;96276.72;4997612;28;20219;-79
2022/10/12 10:53:22;;;;;;;25.75;21.08;;;;;;;16.52;83.08;96270.94;5000082;28;20202;-79
2022/10/12 10:55:54;;;;;;;32.80;27.33;;;;;;;16.55;83.46;96268.72;4996768;28;20207;-79
2022/10/12 10:58:29;;;;;;;23.17;19.50;;;;;;;16.61;83.57;96271.53;4993570;28;20223;-79
2022/10/12 11:01:00;;;;;;;22.20;16.38;;;;;;;16.63;83.45;96262.56;4998822;28;20233;-79
2022/10/12 11:03:30;;;;;;;20.58;16.80;;;;;;;16.62;84.32;96255.72;4999182;28;20203;-79
2022/10/12 11:06:04;;;;;;;22.20;16.63;;;;;;;16.68;84.46;96265.38;4999135;28;20222;-77
2022/10/12 11:08:34;;;;;;;22.27;16.58;;;;;;;16.70;83.94;96265.19;5000139;28;20204;-78
2022/10/12 11:11:07;;;;;;;19.40;15.93;;;;;;;16.74;83.97;96259.38;4997542;28;20234;-78
2022/10/12 11:13:39;;;;;;;22.92;16.15;;;;;;;16.79;82.96;96258.78;5000054;28;20222;-77
2022/10/12 11:16:19;;;;;;;20.23;14.43;;;;;;;16.88;82.27;96258.41;4994977;28;20195;-77
2022/10/12 11:18:50;;;;;;;21.60;16.58;;;;;;;16.83;81.06;96260.00;4999070;28;20200;-77
2022/10/12 11:21:20;;;;;;;21.08;15.25;;;;;;;16.85;82.30;96258.00;4997777;28;20245;-78
2022/10/12 11:23:53;;;;;;;17.48;14.80;;;;;;;16.90;81.90;96260.81;4998337;28;20219;-77